sensor_id;sensor_type;location;lat;lon;timestamp;pressure;altitude;pressure_sealevel;temperature;humidity
73974;BME280;62336;-26.094;27.994;2023-05-29T00:00:15;85082.10;;;26.89;21.80
73974;BME280;62336;-26.094;27.994;2023-05-29T00:02:39;85082.99;;;27.17;21.39
73974;BME280;62336;-26.094;27.994;2023-05-29T00:05:05;85076.26;;;26.87;21.57
73974;BME280;62336;-26.094;27.994;2023-05-29T00:07:30;85074.17;;;26.50;22.01
73974;BME280;62336;-26.094;27.994;2023-05-29T00:09:56;85077.56;;;26.51;21.92
73974;BME280;62336;-26.094;27.994;2023-05-29T00:12:21;85079.85;;;26.50;21.85
73974;BME280;62336;-26.094;27.994;2023-05-29T00:14:48;85083.66;;;26.58;21.80
73974;BME280;62336;-26.094;27.994;2023-05-29T00:17:12;85086.59;;;26.57;21.79
73974;BME280;62336;-26.094;27.994;2023-05-29T00:19:37;85088.58;;;26.66;21.72
73974;BME280;62336;-26.094;27.994;2023-05-29T00:22:03;85085.34;;;26.61;21.64
73974;BME280;62336;-26.094;27.994;2023-05-29T00:24:29;85082.33;;;26.34;21.67
73974;BME280;62336;-26.094;27.994;2023-05-29T00:26:54;85082.72;;;26.48;21.40
73974;BME280;62336;-26.094;27.994;2023-05-29T00:29:20;85082.64;;;26.66;21.57
73974;BME280;62336;-26.094;27.994;2023-05-29T00:31:45;85081.50;;;26.28;21.85
73974;BME280;62336;-26.094;27.994;2023-05-29T00:34:11;85079.77;;;25.70;22.28
73974;BME280;62336;-26.094;27.994;2023-05-29T00:36:36;85076.13;;;25.73;22.06
73974;BME280;62336;-26.094;27.994;2023-05-29T00:39:02;85075.06;;;25.69;22.23
73974;BME280;62336;-26.094;27.994;2023-05-29T00:41:28;85070.68;;;25.81;22.21
73974;BME280;62336;-26.094;27.994;2023-05-29T00:43:53;85070.66;;;25.75;22.28
73974;BME280;62336;-26.094;27.994;2023-05-29T00:46:19;85072.28;;;25.76;21.67
73974;BME280;62336;-26.094;27.994;2023-05-29T00:48:44;85074.38;;;25.98;22.06
73974;BME280;62336;-26.094;27.994;2023-05-29T00:51:10;85070.69;;;25.78;22.21
73974;BME280;62336;-26.094;27.994;2023-05-29T00:53:34;85067.21;;;25.59;22.34
73974;BME280;62336;-26.094;27.994;2023-05-29T00:56:00;85069.14;;;25.01;22.61
73974;BME280;62336;-26.094;27.994;2023-05-29T00:58:26;85071.17;;;25.54;22.56
73974;BME280;62336;-26.094;27.994;2023-05-29T01:00:52;85073.64;;;25.20;22.59
73974;BME280;62336;-26.094;27.994;2023-05-29T01:03:17;85071.55;;;25.22;22.65
73974;BME280;62336;-26.094;27.994;2023-05-29T01:05:42;85068.85;;;25.57;22.35
73974;BME280;62336;-26.094;27.994;2023-05-29T01:08:07;85067.27;;;25.15;22.75
73974;BME280;62336;-26.094;27.994;2023-05-29T01:10:33;85060.51;;;25.16;22.72
73974;BME280;62336;-26.094;27.994;2023-05-29T01:13:06;85059.21;;;25.24;22.59
73974;BME280;62336;-26.094;27.994;2023-05-29T01:15:30;85057.91;;;25.22;22.60
73974;BME280;62336;-26.094;27.994;2023-05-29T01:18:02;85052.14;;;25.03;22.66
73974;BME280;62336;-26.094;27.994;2023-05-29T01:20:23;85054.62;;;25.72;22.17
73974;BME280;62336;-26.094;27.994;2023-05-29T01:22:55;85055.27;;;25.52;22.72
73974;BME280;62336;-26.094;27.994;2023-05-29T01:25:11;85053.14;;;25.03;22.79
73974;BME280;62336;-26.094;27.994;2023-05-29T01:27:31;85057.52;;;25.67;22.26
73974;BME280;62336;-26.094;27.994;2023-05-29T01:29:56;85055.01;;;25.58;21.98
73974;BME280;62336;-26.094;27.994;2023-05-29T01:32:21;85056.45;;;25.62;22.25
73974;BME280;62336;-26.094;27.994;2023-05-29T01:34:46;85057.68;;;25.69;22.02
73974;BME280;62336;-26.094;27.994;2023-05-29T01:37:12;85059.96;;;25.66;22.23
73974;BME280;62336;-26.094;27.994;2023-05-29T01:39:37;85056.75;;;25.50;22.00
73974;BME280;62336;-26.094;27.994;2023-05-29T01:42:03;85053.57;;;25.39;22.10
73974;BME280;62336;-26.094;27.994;2023-05-29T01:44:29;85052.70;;;25.43;22.28
73974;BME280;62336;-26.094;27.994;2023-05-29T01:46:54;85052.92;;;25.71;22.15
73974;BME280;62336;-26.094;27.994;2023-05-29T01:49:19;85051.39;;;25.72;22.15
73974;BME280;62336;-26.094;27.994;2023-05-29T01:51:44;85048.36;;;25.39;22.43
73974;BME280;62336;-26.094;27.994;2023-05-29T01:54:09;85047.20;;;25.32;22.50
73974;BME280;62336;-26.094;27.994;2023-05-29T01:56:34;85045.10;;;25.76;22.28
73974;BME280;62336;-26.094;27.994;2023-05-29T01:59:02;85046.72;;;25.09;22.36
73974;BME280;62336;-26.094;27.994;2023-05-29T02:01:25;85046.55;;;25.34;22.56
73974;BME280;62336;-26.094;27.994;2023-05-29T02:03:51;85049.54;;;25.28;22.67
73974;BME280;62336;-26.094;27.994;2023-05-29T02:06:16;85048.45;;;25.39;22.52
73974;BME280;62336;-26.094;27.994;2023-05-29T02:08:42;85048.35;;;25.41;22.41
73974;BME280;62336;-26.094;27.994;2023-05-29T02:11:07;85048.03;;;25.35;22.21
73974;BME280;62336;-26.094;27.994;2023-05-29T02:13:33;85046.75;;;25.48;22.37
73974;BME280;62336;-26.094;27.994;2023-05-29T02:15:58;85047.65;;;25.53;22.11
73974;BME280;62336;-26.094;27.994;2023-05-29T02:18:24;85045.61;;;25.05;22.43
73974;BME280;62336;-26.094;27.994;2023-05-29T02:20:50;85045.22;;;25.41;22.09
73974;BME280;62336;-26.094;27.994;2023-05-29T02:23:14;85044.65;;;25.06;22.41
73974;BME280;62336;-26.094;27.994;2023-05-29T02:25:42;85040.05;;;25.57;22.27
73974;BME280;62336;-26.094;27.994;2023-05-29T02:28:05;85047.04;;;25.32;22.42
73974;BME280;62336;-26.094;27.994;2023-05-29T02:30:35;85047.06;;;25.01;22.65
73974;BME280;62336;-26.094;27.994;2023-05-29T02:32:55;85049.75;;;25.18;22.74
73974;BME280;62336;-26.094;27.994;2023-05-29T02:35:20;85052.08;;;25.37;22.53
73974;BME280;62336;-26.094;27.994;2023-05-29T02:37:45;85053.28;;;25.17;22.40
73974;BME280;62336;-26.094;27.994;2023-05-29T02:40:11;85055.45;;;25.30;22.34
73974;BME280;62336;-26.094;27.994;2023-05-29T02:42:37;85053.20;;;24.88;22.47
73974;BME280;62336;-26.094;27.994;2023-05-29T02:45:02;85052.45;;;25.04;22.73
73974;BME280;62336;-26.094;27.994;2023-05-29T02:47:28;85047.98;;;25.02;22.66
73974;BME280;62336;-26.094;27.994;2023-05-29T02:49:53;85049.78;;;25.20;22.76
73974;BME280;62336;-26.094;27.994;2023-05-29T02:52:18;85049.80;;;25.03;22.52
73974;BME280;62336;-26.094;27.994;2023-05-29T02:54:43;85048.56;;;24.97;22.53
73974;BME280;62336;-26.094;27.994;2023-05-29T02:57:08;85049.78;;;25.44;22.33
73974;BME280;62336;-26.094;27.994;2023-05-29T02:59:33;85048.10;;;24.92;22.33
73974;BME280;62336;-26.094;27.994;2023-05-29T03:01:59;85050.76;;;24.91;22.20
73974;BME280;62336;-26.094;27.994;2023-05-29T03:04:25;85051.48;;;24.83;22.24
73974;BME280;62336;-26.094;27.994;2023-05-29T03:06:50;85057.72;;;24.90;22.20
73974;BME280;62336;-26.094;27.994;2023-05-29T03:09:15;85056.14;;;25.06;22.25
73974;BME280;62336;-26.094;27.994;2023-05-29T03:11:41;85058.31;;;25.47;22.09
73974;BME280;62336;-26.094;27.994;2023-05-29T03:14:06;85054.92;;;25.19;22.04
73974;BME280;62336;-26.094;27.994;2023-05-29T03:16:31;85058.60;;;24.89;22.11
73974;BME280;62336;-26.094;27.994;2023-05-29T03:18:58;85059.98;;;24.80;22.08
73974;BME280;62336;-26.094;27.994;2023-05-29T03:21:22;85058.29;;;24.91;22.16
73974;BME280;62336;-26.094;27.994;2023-05-29T03:23:48;85057.35;;;24.94;22.34
73974;BME280;62336;-26.094;27.994;2023-05-29T03:26:13;85057.86;;;25.07;22.30
73974;BME280;62336;-26.094;27.994;2023-05-29T03:28:38;85057.61;;;24.78;22.60
73974;BME280;62336;-26.094;27.994;2023-05-29T03:31:04;85057.70;;;25.01;22.40
73974;BME280;62336;-26.094;27.994;2023-05-29T03:33:29;85062.91;;;24.82;22.08
73974;BME280;62336;-26.094;27.994;2023-05-29T03:35:54;85064.92;;;24.81;22.23
73974;BME280;62336;-26.094;27.994;2023-05-29T03:38:19;85062.48;;;24.63;22.18
73974;BME280;62336;-26.094;27.994;2023-05-29T03:40:45;85065.00;;;24.82;22.24
73974;BME280;62336;-26.094;27.994;2023-05-29T03:43:10;85065.46;;;24.49;22.43
73974;BME280;62336;-26.094;27.994;2023-05-29T03:45:36;85071.29;;;25.13;22.27
73974;BME280;62336;-26.094;27.994;2023-05-29T03:48:01;85070.47;;;24.64;22.27
73974;BME280;62336;-26.094;27.994;2023-05-29T03:50:27;85070.83;;;24.60;22.26
73974;BME280;62336;-26.094;27.994;2023-05-29T03:52:52;85072.24;;;24.69;22.10
73974;BME280;62336;-26.094;27.994;2023-05-29T03:55:18;85076.10;;;24.56;21.99
73974;BME280;62336;-26.094;27.994;2023-05-29T03:57:43;85080.90;;;24.93;21.92
73974;BME280;62336;-26.094;27.994;2023-05-29T04:00:09;85077.86;;;24.98;22.01
73974;BME280;62336;-26.094;27.994;2023-05-29T04:02:33;85077.37;;;25.17;22.05
73974;BME280;62336;-26.094;27.994;2023-05-29T04:04:58;85078.95;;;24.90;22.07
73974;BME280;62336;-26.094;27.994;2023-05-29T04:07:24;85073.72;;;24.77;22.20
73974;BME280;62336;-26.094;27.994;2023-05-29T04:09:50;85074.26;;;24.90;22.29
73974;BME280;62336;-26.094;27.994;2023-05-29T04:12:15;85075.14;;;25.00;22.26
73974;BME280;62336;-26.094;27.994;2023-05-29T04:14:40;85071.69;;;24.61;22.28
73974;BME280;62336;-26.094;27.994;2023-05-29T04:17:05;85076.97;;;25.21;22.39
73974;BME280;62336;-26.094;27.994;2023-05-29T04:19:30;85082.70;;;25.42;22.24
73974;BME280;62336;-26.094;27.994;2023-05-29T04:21:56;85085.65;;;24.89;22.45
73974;BME280;62336;-26.094;27.994;2023-05-29T04:24:21;85089.47;;;25.36;22.19
73974;BME280;62336;-26.094;27.994;2023-05-29T04:26:46;85089.93;;;25.27;22.23
73974;BME280;62336;-26.094;27.994;2023-05-29T04:29:12;85098.78;;;25.68;21.77
73974;BME280;62336;-26.094;27.994;2023-05-29T04:31:37;85102.54;;;25.37;21.93
73974;BME280;62336;-26.094;27.994;2023-05-29T04:34:03;85105.15;;;25.01;22.01
73974;BME280;62336;-26.094;27.994;2023-05-29T04:36:28;85111.17;;;25.02;21.91
73974;BME280;62336;-26.094;27.994;2023-05-29T04:38:54;85109.36;;;25.34;21.73
73974;BME280;62336;-26.094;27.994;2023-05-29T04:41:19;85110.70;;;25.62;21.63
73974;BME280;62336;-26.094;27.994;2023-05-29T04:43:45;85110.79;;;26.05;21.37
73974;BME280;62336;-26.094;27.994;2023-05-29T04:46:11;85115.27;;;25.61;21.71
73974;BME280;62336;-26.094;27.994;2023-05-29T04:48:36;85120.58;;;25.64;21.62
73974;BME280;62336;-26.094;27.994;2023-05-29T04:51:01;85125.34;;;25.34;21.76
73974;BME280;62336;-26.094;27.994;2023-05-29T04:53:27;85130.55;;;25.41;21.87
73974;BME280;62336;-26.094;27.994;2023-05-29T04:55:53;85131.54;;;25.41;22.04
73974;BME280;62336;-26.094;27.994;2023-05-29T04:58:18;85138.99;;;25.80;21.81
73974;BME280;62336;-26.094;27.994;2023-05-29T05:00:43;85141.00;;;25.27;21.96
73974;BME280;62336;-26.094;27.994;2023-05-29T05:03:09;85145.44;;;25.17;22.24
73974;BME280;62336;-26.094;27.994;2023-05-29T05:05:34;85148.02;;;25.49;21.94
73974;BME280;62336;-26.094;27.994;2023-05-29T05:08:00;85152.75;;;25.69;22.00
73974;BME280;62336;-26.094;27.994;2023-05-29T05:10:25;85154.89;;;25.13;22.07
73974;BME280;62336;-26.094;27.994;2023-05-29T05:12:51;85157.26;;;25.38;22.09
73974;BME280;62336;-26.094;27.994;2023-05-29T05:15:17;85159.69;;;25.39;21.93
73974;BME280;62336;-26.094;27.994;2023-05-29T05:17:42;85161.23;;;25.18;22.24
73974;BME280;62336;-26.094;27.994;2023-05-29T05:20:08;85162.56;;;25.56;22.00
73974;BME280;62336;-26.094;27.994;2023-05-29T05:22:32;85163.86;;;25.44;21.99
73974;BME280;62336;-26.094;27.994;2023-05-29T05:24:58;85166.96;;;24.96;21.84
73974;BME280;62336;-26.094;27.994;2023-05-29T05:27:23;85167.29;;;25.75;21.70
73974;BME280;62336;-26.094;27.994;2023-05-29T05:29:49;85167.70;;;25.95;21.73
73974;BME280;62336;-26.094;27.994;2023-05-29T05:32:14;85169.18;;;25.58;21.97
73974;BME280;62336;-26.094;27.994;2023-05-29T05:34:38;85171.50;;;25.38;22.03
73974;BME280;62336;-26.094;27.994;2023-05-29T05:37:04;85175.66;;;25.47;21.86
73974;BME280;62336;-26.094;27.994;2023-05-29T05:39:30;85179.71;;;25.29;22.05
73974;BME280;62336;-26.094;27.994;2023-05-29T05:41:55;85183.91;;;25.40;21.81
73974;BME280;62336;-26.094;27.994;2023-05-29T05:44:20;85188.36;;;25.38;21.89
73974;BME280;62336;-26.094;27.994;2023-05-29T05:46:46;85192.79;;;25.43;21.91
73974;BME280;62336;-26.094;27.994;2023-05-29T05:49:12;85201.88;;;25.35;22.17
73974;BME280;62336;-26.094;27.994;2023-05-29T05:51:37;85208.27;;;25.18;22.19
73974;BME280;62336;-26.094;27.994;2023-05-29T05:54:02;85212.95;;;25.03;22.21
73974;BME280;62336;-26.094;27.994;2023-05-29T05:56:28;85216.95;;;25.32;22.27
73974;BME280;62336;-26.094;27.994;2023-05-29T05:58:53;85217.89;;;24.90;22.61
73974;BME280;62336;-26.094;27.994;2023-05-29T06:01:18;85224.54;;;25.03;22.32
73974;BME280;62336;-26.094;27.994;2023-05-29T06:03:43;85227.27;;;25.32;22.10
73974;BME280;62336;-26.094;27.994;2023-05-29T06:06:09;85230.64;;;25.26;22.24
73974;BME280;62336;-26.094;27.994;2023-05-29T06:08:35;85235.00;;;25.19;22.20
73974;BME280;62336;-26.094;27.994;2023-05-29T06:11:00;85231.13;;;25.76;22.07
73974;BME280;62336;-26.094;27.994;2023-05-29T06:13:26;85228.08;;;25.61;22.27
73974;BME280;62336;-26.094;27.994;2023-05-29T06:15:51;85227.46;;;25.64;22.41
73974;BME280;62336;-26.094;27.994;2023-05-29T06:18:16;85227.47;;;25.61;22.29
73974;BME280;62336;-26.094;27.994;2023-05-29T06:20:41;85224.53;;;25.97;21.73
73974;BME280;62336;-26.094;27.994;2023-05-29T06:23:07;85224.33;;;26.18;21.55
73974;BME280;62336;-26.094;27.994;2023-05-29T06:25:32;85223.69;;;26.26;21.41
73974;BME280;62336;-26.094;27.994;2023-05-29T06:27:58;85222.78;;;25.78;21.53
73974;BME280;62336;-26.094;27.994;2023-05-29T06:30:22;85221.23;;;25.96;21.42
73974;BME280;62336;-26.094;27.994;2023-05-29T06:32:48;85216.68;;;26.35;21.51
73974;BME280;62336;-26.094;27.994;2023-05-29T06:35:13;85215.59;;;25.99;21.81
73974;BME280;62336;-26.094;27.994;2023-05-29T06:37:38;85211.92;;;26.00;21.54
73974;BME280;62336;-26.094;27.994;2023-05-29T06:40:04;85214.37;;;25.87;21.48
73974;BME280;62336;-26.094;27.994;2023-05-29T06:42:30;85215.99;;;26.60;20.83
73974;BME280;62336;-26.094;27.994;2023-05-29T06:44:55;85219.02;;;26.31;20.77
73974;BME280;62336;-26.094;27.994;2023-05-29T06:47:20;85225.84;;;25.98;21.07
73974;BME280;62336;-26.094;27.994;2023-05-29T06:49:45;85226.09;;;26.64;20.41
73974;BME280;62336;-26.094;27.994;2023-05-29T06:52:10;85236.27;;;26.71;20.39
73974;BME280;62336;-26.094;27.994;2023-05-29T06:54:36;85239.60;;;26.62;20.96
73974;BME280;62336;-26.094;27.994;2023-05-29T06:57:02;85247.11;;;26.26;21.05
73974;BME280;62336;-26.094;27.994;2023-05-29T06:59:27;85250.15;;;26.49;20.89
73974;BME280;62336;-26.094;27.994;2023-05-29T07:01:53;85256.27;;;25.87;21.50
73974;BME280;62336;-26.094;27.994;2023-05-29T07:04:19;85262.47;;;26.33;21.48
73974;BME280;62336;-26.094;27.994;2023-05-29T07:06:44;85263.43;;;27.36;21.57
73974;BME280;62336;-26.094;27.994;2023-05-29T07:09:09;85263.26;;;26.79;21.30
73974;BME280;62336;-26.094;27.994;2023-05-29T07:11:35;85263.75;;;26.68;21.25
73974;BME280;62336;-26.094;27.994;2023-05-29T07:14:00;85257.48;;;26.82;21.29
73974;BME280;62336;-26.094;27.994;2023-05-29T07:16:26;85256.18;;;26.96;20.80
73974;BME280;62336;-26.094;27.994;2023-05-29T07:18:52;85258.52;;;27.23;20.52
73974;BME280;62336;-26.094;27.994;2023-05-29T07:21:17;85252.75;;;27.50;20.50
73974;BME280;62336;-26.094;27.994;2023-05-29T07:23:41;85255.10;;;27.69;19.82
73974;BME280;62336;-26.094;27.994;2023-05-29T07:26:06;85259.50;;;27.64;19.94
73974;BME280;62336;-26.094;27.994;2023-05-29T07:28:32;85257.00;;;27.73;19.47
73974;BME280;62336;-26.094;27.994;2023-05-29T07:30:58;85257.98;;;27.15;19.80
73974;BME280;62336;-26.094;27.994;2023-05-29T07:33:24;85261.17;;;27.59;19.41
73974;BME280;62336;-26.094;27.994;2023-05-29T07:35:49;85259.11;;;27.84;19.26
73974;BME280;62336;-26.094;27.994;2023-05-29T07:38:14;85258.91;;;27.29;19.51
73974;BME280;62336;-26.094;27.994;2023-05-29T07:40:41;85256.91;;;27.62;19.85
73974;BME280;62336;-26.094;27.994;2023-05-29T07:43:06;85256.97;;;28.03;19.38
73974;BME280;62336;-26.094;27.994;2023-05-29T07:45:31;85257.26;;;27.63;19.28
73974;BME280;62336;-26.094;27.994;2023-05-29T07:47:56;85254.46;;;28.29;18.77
73974;BME280;62336;-26.094;27.994;2023-05-29T07:50:22;85254.60;;;27.61;19.07
73974;BME280;62336;-26.094;27.994;2023-05-29T07:52:48;85255.51;;;27.75;19.13
73974;BME280;62336;-26.094;27.994;2023-05-29T07:55:14;85254.91;;;27.92;19.17
73974;BME280;62336;-26.094;27.994;2023-05-29T07:57:39;85256.35;;;27.54;19.49
73974;BME280;62336;-26.094;27.994;2023-05-29T08:00:06;85255.54;;;27.77;19.74
73974;BME280;62336;-26.094;27.994;2023-05-29T08:02:31;85255.22;;;28.06;19.55
73974;BME280;62336;-26.094;27.994;2023-05-29T08:04:56;85254.11;;;28.75;19.21
73974;BME280;62336;-26.094;27.994;2023-05-29T08:07:22;85247.42;;;28.70;18.92
73974;BME280;62336;-26.094;27.994;2023-05-29T08:09:47;85243.66;;;29.15;18.58
73974;BME280;62336;-26.094;27.994;2023-05-29T08:12:12;85238.07;;;28.81;19.14
73974;BME280;62336;-26.094;27.994;2023-05-29T08:14:38;85234.29;;;28.97;18.77
73974;BME280;62336;-26.094;27.994;2023-05-29T08:17:04;85233.99;;;29.45;18.31
73974;BME280;62336;-26.094;27.994;2023-05-29T08:19:28;85236.68;;;29.35;18.13
73974;BME280;62336;-26.094;27.994;2023-05-29T08:21:54;85232.61;;;29.54;18.12
73974;BME280;62336;-26.094;27.994;2023-05-29T08:24:19;85229.73;;;29.38;18.36
73974;BME280;62336;-26.094;27.994;2023-05-29T08:26:45;85225.00;;;29.61;18.09
73974;BME280;62336;-26.094;27.994;2023-05-29T08:29:11;85228.21;;;29.69;17.46
73974;BME280;62336;-26.094;27.994;2023-05-29T08:31:37;85221.72;;;30.20;16.51
73974;BME280;62336;-26.094;27.994;2023-05-29T08:34:02;85212.57;;;30.39;16.26
73974;BME280;62336;-26.094;27.994;2023-05-29T08:36:28;85215.45;;;30.44;16.40
73974;BME280;62336;-26.094;27.994;2023-05-29T08:38:54;85219.08;;;30.49;16.20
73974;BME280;62336;-26.094;27.994;2023-05-29T08:41:25;85215.13;;;30.34;16.45
73974;BME280;62336;-26.094;27.994;2023-05-29T08:43:46;85214.81;;;30.36;16.11
73974;BME280;62336;-26.094;27.994;2023-05-29T08:46:13;85218.85;;;30.22;15.75
73974;BME280;62336;-26.094;27.994;2023-05-29T08:48:39;85215.72;;;30.25;15.52
73974;BME280;62336;-26.094;27.994;2023-05-29T08:51:03;85213.70;;;30.82;15.08
73974;BME280;62336;-26.094;27.994;2023-05-29T08:53:29;85214.00;;;30.30;15.45
73974;BME280;62336;-26.094;27.994;2023-05-29T08:55:55;85216.61;;;30.18;15.38
73974;BME280;62336;-26.094;27.994;2023-05-29T08:58:21;85218.31;;;30.63;15.15
73974;BME280;62336;-26.094;27.994;2023-05-29T09:00:46;85214.17;;;30.89;15.00
73974;BME280;62336;-26.094;27.994;2023-05-29T09:03:11;85216.05;;;30.75;14.79
73974;BME280;62336;-26.094;27.994;2023-05-29T09:05:38;85217.90;;;30.83;14.99
73974;BME280;62336;-26.094;27.994;2023-05-29T09:08:03;85221.84;;;30.82;14.72
73974;BME280;62336;-26.094;27.994;2023-05-29T09:10:28;85218.28;;;31.18;14.08
73974;BME280;62336;-26.094;27.994;2023-05-29T09:12:54;85214.12;;;30.97;14.41
73974;BME280;62336;-26.094;27.994;2023-05-29T09:15:22;85209.38;;;30.70;14.31
73974;BME280;62336;-26.094;27.994;2023-05-29T09:17:49;85209.32;;;30.65;14.59
73974;BME280;62336;-26.094;27.994;2023-05-29T09:20:16;85211.76;;;30.96;14.68
73974;BME280;62336;-26.094;27.994;2023-05-29T09:22:36;85201.77;;;31.06;14.35
73974;BME280;62336;-26.094;27.994;2023-05-29T09:25:02;85201.30;;;31.17;14.55
73974;BME280;62336;-26.094;27.994;2023-05-29T09:27:27;85200.60;;;30.97;14.51
73974;BME280;62336;-26.094;27.994;2023-05-29T09:29:53;85207.17;;;31.33;14.29
73974;BME280;62336;-26.094;27.994;2023-05-29T09:32:19;85204.18;;;31.65;13.99
73974;BME280;62336;-26.094;27.994;2023-05-29T09:34:45;85203.52;;;31.83;13.63
73974;BME280;62336;-26.094;27.994;2023-05-29T09:37:12;85202.79;;;31.43;13.81
73974;BME280;62336;-26.094;27.994;2023-05-29T09:39:45;85199.72;;;31.64;14.36
73974;BME280;62336;-26.094;27.994;2023-05-29T09:42:02;85194.46;;;31.99;14.07
73974;BME280;62336;-26.094;27.994;2023-05-29T09:44:28;85190.48;;;32.47;13.95
73974;BME280;62336;-26.094;27.994;2023-05-29T09:46:58;85181.81;;;32.59;14.23
73974;BME280;62336;-26.094;27.994;2023-05-29T09:49:23;85185.74;;;32.35;13.47
73974;BME280;62336;-26.094;27.994;2023-05-29T09:51:46;85188.62;;;32.31;13.82
73974;BME280;62336;-26.094;27.994;2023-05-29T09:54:16;85187.32;;;32.61;12.75
73974;BME280;62336;-26.094;27.994;2023-05-29T09:56:35;85183.30;;;31.80;13.64
73974;BME280;62336;-26.094;27.994;2023-05-29T09:59:01;85177.52;;;31.64;13.41
73974;BME280;62336;-26.094;27.994;2023-05-29T10:01:27;85168.44;;;31.82;13.29
73974;BME280;62336;-26.094;27.994;2023-05-29T10:03:52;85169.49;;;31.57;13.78
73974;BME280;62336;-26.094;27.994;2023-05-29T10:06:19;85166.41;;;31.58;13.57
73974;BME280;62336;-26.094;27.994;2023-05-29T10:08:47;85163.35;;;31.89;13.78
73974;BME280;62336;-26.094;27.994;2023-05-29T10:11:08;85161.82;;;32.13;13.26
73974;BME280;62336;-26.094;27.994;2023-05-29T10:13:36;85159.93;;;31.84;13.35
73974;BME280;62336;-26.094;27.994;2023-05-29T10:15:59;85156.95;;;31.76;13.56
73974;BME280;62336;-26.094;27.994;2023-05-29T10:18:27;85147.85;;;32.26;13.42
73974;BME280;62336;-26.094;27.994;2023-05-29T10:20:52;85144.38;;;32.50;13.20
73974;BME280;62336;-26.094;27.994;2023-05-29T10:23:17;85139.05;;;32.75;12.92
73974;BME280;62336;-26.094;27.994;2023-05-29T10:25:44;85136.29;;;32.78;12.85
73974;BME280;62336;-26.094;27.994;2023-05-29T10:28:08;85130.86;;;32.62;13.17
73974;BME280;62336;-26.094;27.994;2023-05-29T10:30:37;85126.50;;;32.86;12.99
73974;BME280;62336;-26.094;27.994;2023-05-29T10:33:12;85124.82;;;32.64;12.65
73974;BME280;62336;-26.094;27.994;2023-05-29T10:35:35;85123.99;;;32.56;13.58
73974;BME280;62336;-26.094;27.994;2023-05-29T10:37:54;85123.90;;;32.86;12.32
73974;BME280;62336;-26.094;27.994;2023-05-29T10:40:16;85116.74;;;32.63;12.85
73974;BME280;62336;-26.094;27.994;2023-05-29T10:42:44;85113.21;;;32.79;12.46
73974;BME280;62336;-26.094;27.994;2023-05-29T10:45:08;85118.89;;;32.94;12.29
73974;BME280;62336;-26.094;27.994;2023-05-29T10:47:33;85115.99;;;32.85;12.19
73974;BME280;62336;-26.094;27.994;2023-05-29T10:50:01;85110.31;;;32.88;11.79
73974;BME280;62336;-26.094;27.994;2023-05-29T10:52:24;85101.30;;;33.19;12.00
73974;BME280;62336;-26.094;27.994;2023-05-29T10:54:54;85093.15;;;33.26;11.58
73974;BME280;62336;-26.094;27.994;2023-05-29T10:57:14;85087.33;;;33.31;11.48
73974;BME280;62336;-26.094;27.994;2023-05-29T10:59:40;85085.38;;;33.32;11.44
73974;BME280;62336;-26.094;27.994;2023-05-29T11:02:05;85079.24;;;33.26;11.92
73974;BME280;62336;-26.094;27.994;2023-05-29T11:04:30;85071.46;;;33.08;12.25
73974;BME280;62336;-26.094;27.994;2023-05-29T11:06:55;85072.56;;;33.53;12.10
73974;BME280;62336;-26.094;27.994;2023-05-29T11:09:28;85075.80;;;34.08;11.92
73974;BME280;62336;-26.094;27.994;2023-05-29T11:11:45;85069.57;;;34.10;11.67
73974;BME280;62336;-26.094;27.994;2023-05-29T11:14:15;85065.64;;;33.80;12.46
73974;BME280;62336;-26.094;27.994;2023-05-29T11:16:38;85059.34;;;33.49;12.06
73974;BME280;62336;-26.094;27.994;2023-05-29T11:19:05;85061.67;;;33.51;11.39
73974;BME280;62336;-26.094;27.994;2023-05-29T11:21:44;85060.27;;;33.58;11.73
73974;BME280;62336;-26.094;27.994;2023-05-29T11:23:54;85055.43;;;33.99;11.39
73974;BME280;62336;-26.094;27.994;2023-05-29T11:26:21;85054.76;;;33.99;11.50
73974;BME280;62336;-26.094;27.994;2023-05-29T11:28:45;85059.90;;;33.93;11.19
73974;BME280;62336;-26.094;27.994;2023-05-29T11:31:12;85061.10;;;33.36;10.85
73974;BME280;62336;-26.094;27.994;2023-05-29T11:33:40;85061.75;;;33.59;11.39
73974;BME280;62336;-26.094;27.994;2023-05-29T11:36:02;85055.25;;;33.69;11.00
73974;BME280;62336;-26.094;27.994;2023-05-29T11:38:29;85048.46;;;33.90;10.70
73974;BME280;62336;-26.094;27.994;2023-05-29T11:40:55;85047.71;;;33.64;11.24
73974;BME280;62336;-26.094;27.994;2023-05-29T11:43:19;85042.50;;;33.75;10.88
73974;BME280;62336;-26.094;27.994;2023-05-29T11:45:44;85047.68;;;33.95;11.00
73974;BME280;62336;-26.094;27.994;2023-05-29T11:48:10;85041.25;;;33.60;10.88
73974;BME280;62336;-26.094;27.994;2023-05-29T11:50:36;85035.91;;;33.69;10.73
73974;BME280;62336;-26.094;27.994;2023-05-29T11:53:00;85034.84;;;34.24;11.20
73974;BME280;62336;-26.094;27.994;2023-05-29T11:55:27;85035.07;;;34.82;10.60
73974;BME280;62336;-26.094;27.994;2023-05-29T11:57:58;85032.62;;;34.27;10.27
73974;BME280;62336;-26.094;27.994;2023-05-29T12:00:18;85032.61;;;34.34;10.50
73974;BME280;62336;-26.094;27.994;2023-05-29T12:02:44;85027.20;;;34.52;11.19
73974;BME280;62336;-26.094;27.994;2023-05-29T12:05:10;85019.86;;;34.37;10.90
73974;BME280;62336;-26.094;27.994;2023-05-29T12:07:36;85025.00;;;33.84;11.51
73974;BME280;62336;-26.094;27.994;2023-05-29T12:10:09;85024.07;;;33.97;11.53
73974;BME280;62336;-26.094;27.994;2023-05-29T12:12:32;85023.80;;;34.29;11.52
73974;BME280;62336;-26.094;27.994;2023-05-29T12:14:53;85019.23;;;34.23;11.19
73974;BME280;62336;-26.094;27.994;2023-05-29T12:17:18;85021.17;;;34.25;11.17
73974;BME280;62336;-26.094;27.994;2023-05-29T12:19:43;85018.41;;;34.43;11.80
73974;BME280;62336;-26.094;27.994;2023-05-29T12:22:09;85014.60;;;34.68;10.63
73974;BME280;62336;-26.094;27.994;2023-05-29T12:24:35;85013.95;;;34.83;10.74
73974;BME280;62336;-26.094;27.994;2023-05-29T12:27:03;85010.28;;;34.67;10.84
73974;BME280;62336;-26.094;27.994;2023-05-29T12:29:30;85003.99;;;34.03;11.21